Time;durP1;ratioP1;P1;durP2;ratioP2;P2;SDS_P1;SDS_P2;PMS_P1;PMS_P2;Temp;Humidity;BMP_temperature;BMP_pressure;BME280_temperature;BME280_humidity;BME280_pressure;Samples;Min_cycle;Max_cycle;Signal;HPM_P1;HPM_P2
2024/01/04 00:02:16;;;;;;;9.50;4.50;;;;;;;7.46;100.00;63713.06;5070304;28;20675;-56
2024/01/04 00:04:42;;;;;;;4.40;2.70;;;;;;;7.56;100.00;63725.94;5070202;28;20183;-56
2024/01/04 00:07:08;;;;;;;5.50;3.57;;;;;;;7.39;100.00;63710.44;5069807;28;20223;-55
2024/01/04 00:09:33;;;;;;;5.13;3.20;;;;;;;7.54;100.00;63726.25;5071409;28;20256;-55
2024/01/04 00:11:59;;;;;;;5.20;3.07;;;;;;;7.38;100.00;63704.34;5073692;28;20690;-55
2024/01/04 00:14:24;;;;;;;8.73;3.27;;;;;;;7.49;100.00;63718.84;5073708;28;20654;-54
2024/01/04 00:16:50;;;;;;;8.90;3.90;;;;;;;7.28;100.00;63697.91;5073442;28;20220;-54
2024/01/04 00:19:15;;;;;;;5.70;3.43;;;;;;;7.29;100.00;63694.00;5073535;28;20235;-55
2024/01/04 00:21:41;;;;;;;4.67;2.70;;;;;;;7.36;100.00;63704.13;5073431;28;20659;-53
2024/01/04 00:24:07;;;;;;;3.67;2.60;;;;;;;7.34;100.00;63704.44;5073544;28;20563;-55
2024/01/04 00:26:33;;;;;;;7.27;3.20;;;;;;;7.38;100.00;63706.31;5073195;28;20270;-53
2024/01/04 00:28:59;;;;;;;11.57;6.70;;;;;;;7.45;100.00;63713.94;5073856;28;20204;-54
2024/01/04 00:31:25;;;;;;;6.20;3.33;;;;;;;7.35;100.00;63705.56;5055207;28;20189;-54
2024/01/04 00:33:50;;;;;;;4.70;2.90;;;;;;;7.44;100.00;63715.91;5073402;28;20659;-55
2024/01/04 00:36:16;;;;;;;5.03;2.80;;;;;;;7.56;100.00;63723.44;5073005;28;20629;-54
2024/01/04 00:38:41;;;;;;;5.33;2.90;;;;;;;7.30;100.00;63697.56;5072740;28;20239;-59
2024/01/04 00:41:07;;;;;;;3.87;2.60;;;;;;;7.34;100.00;63699.97;5073358;28;20189;-55
2024/01/04 00:43:33;;;;;;;7.50;3.40;;;;;;;7.38;100.00;63706.84;5072959;28;20204;-54
2024/01/04 00:45:59;;;;;;;4.47;2.57;;;;;;;7.50;100.00;63721.91;5072962;28;20201;-53
2024/01/04 00:48:24;;;;;;;4.97;2.90;;;;;;;7.54;100.00;63723.75;5072891;28;20262;-53
2024/01/04 00:50:50;;;;;;;5.03;2.87;;;;;;;7.50;100.00;63719.94;5072996;28;20187;-53
2024/01/04 00:53:16;;;;;;;6.00;2.93;;;;;;;7.49;100.00;63721.34;5072892;28;20316;-57
2024/01/04 00:55:48;;;;;;;4.33;3.13;;;;;;;7.35;100.00;63703.56;5073029;28;20215;-54
2024/01/04 00:58:14;;;;;;;7.27;3.80;;;;;;;7.29;100.00;63699.53;5054857;28;20295;-55
2024/01/04 01:00:40;;;;;;;4.60;3.23;;;;;;;7.04;100.00;63669.78;5072834;28;20267;-57
2024/01/04 01:03:06;;;;;;;7.07;4.00;;;;;;;7.28;100.00;63695.94;5072706;28;20209;-62
2024/01/04 01:05:31;;;;;;;7.00;4.10;;;;;;;7.23;100.00;63690.47;5072839;28;20185;-55
2024/01/04 01:07:57;;;;;;;7.37;4.47;;;;;;;7.24;100.00;63689.06;5072559;28;20603;-55
2024/01/04 01:10:22;;;;;;;8.10;4.53;;;;;;;7.30;100.00;63700.09;5054835;28;20280;-54
2024/01/04 01:12:48;;;;;;;7.10;4.83;;;;;;;7.18;100.00;63687.00;5073006;28;20353;-54
2024/01/04 01:15:13;;;;;;;7.23;4.07;;;;;;;7.05;100.00;63670.31;5072431;28;20201;-55
2024/01/04 01:17:39;;;;;;;6.07;4.20;;;;;;;6.92;100.00;63656.13;5072719;28;20292;-55
2024/01/04 01:20:07;;;;;;;6.73;5.17;;;;;;;6.68;100.00;63631.06;5072164;28;20189;-55
2024/01/04 01:22:32;;;;;;;9.90;5.10;;;;;;;6.47;100.00;63610.66;5053691;28;20213;-59
2024/01/04 01:24:58;;;;;;;11.50;5.30;;;;;;;6.63;100.00;63628.09;5072431;28;20618;-53
2024/01/04 01:27:24;;;;;;;9.20;5.03;;;;;;;6.55;100.00;63619.38;5072531;28;20216;-54
2024/01/04 01:29:50;;;;;;;10.70;5.20;;;;;;;6.45;100.00;63603.50;5072193;28;20217;-54
2024/01/04 01:32:16;;;;;;;7.90;5.90;;;;;;;6.27;100.00;63585.81;5072597;28;20471;-54
2024/01/04 01:34:44;;;;;;;9.07;5.57;;;;;;;6.40;100.00;63603.03;5054579;28;20184;-56
2024/01/04 01:37:11;;;;;;;10.00;5.37;;;;;;;6.30;100.00;63589.09;5072491;28;20233;-55
2024/01/04 01:39:36;;;;;;;9.40;4.80;;;;;;;6.29;100.00;63588.00;5072386;28;20294;-56
2024/01/04 01:42:02;;;;;;;9.00;5.70;;;;;;;6.30;100.00;63589.63;5072411;28;20680;-55
2024/01/04 01:44:28;;;;;;;12.17;5.67;;;;;;;6.56;100.00;63620.50;5072465;28;20239;-55
2024/01/04 01:46:53;;;;;;;8.07;5.03;;;;;;;6.60;100.00;63622.34;5054273;28;20256;-54
2024/01/04 01:49:19;;;;;;;9.77;4.90;;;;;;;6.41;100.00;63601.63;5072120;28;20693;-54
2024/01/04 01:51:44;;;;;;;8.47;4.67;;;;;;;6.46;100.00;63606.53;5053986;28;20214;-58
2024/01/04 01:54:11;;;;;;;9.03;5.23;;;;;;;6.59;100.00;63623.75;5072215;28;20276;-57
2024/01/04 01:56:36;;;;;;;7.90;4.33;;;;;;;6.74;100.00;63640.13;5072089;28;20303;-54
2024/01/04 01:59:02;;;;;;;8.83;4.73;;;;;;;6.91;100.00;63658.09;5072053;28;20268;-53
2024/01/04 02:01:28;;;;;;;7.90;4.67;;;;;;;7.07;100.00;63672.50;5053925;28;20205;-56
2024/01/04 02:03:54;;;;;;;9.13;4.90;;;;;;;7.26;100.00;63693.22;5071900;28;20180;-57
2024/01/04 02:06:20;;;;;;;6.27;3.80;;;;;;;7.16;100.00;63682.31;5071776;28;20197;-54
2024/01/04 02:08:48;;;;;;;7.37;4.37;;;;;;;7.15;100.00;63684.25;5071658;28;20207;-55
2024/01/04 02:11:18;;;;;;;7.70;3.70;;;;;;;7.06;100.00;63673.91;5054185;28;20697;-55
2024/01/04 02:13:44;;;;;;;5.13;3.60;;;;;;;7.25;100.00;63689.63;5071798;28;20266;-54
2024/01/04 02:16:09;;;;;;;6.80;4.20;;;;;;;7.40;100.00;63709.03;5053746;28;20636;-55
2024/01/04 02:18:35;;;;;;;7.20;4.70;;;;;;;7.47;100.00;63716.13;5053628;28;20221;-57
2024/01/04 02:21:01;;;;;;;7.47;4.13;;;;;;;7.31;100.00;63699.22;5053718;28;20193;-56
2024/01/04 02:23:27;;;;;;;4.37;3.33;;;;;;;7.39;100.00;63707.94;5071689;28;20216;-55
2024/01/04 02:25:53;;;;;;;7.83;3.90;;;;;;;7.24;100.00;63691.59;5071437;28;20185;-53
2024/01/04 02:28:19;;;;;;;7.37;4.07;;;;;;;7.37;100.00;63707.72;5053600;28;20295;-53
2024/01/04 02:30:44;;;;;;;5.00;3.20;;;;;;;7.31;100.00;63698.69;5071284;28;20181;-53
2024/01/04 02:33:10;;;;;;;5.80;3.53;;;;;;;7.41;100.00;63709.59;5070888;28;20220;-52
2024/01/04 02:35:35;;;;;;;6.40;3.70;;;;;;;7.37;100.00;63705.22;5071398;28;20655;-54
2024/01/04 02:38:01;;;;;;;6.30;3.90;;;;;;;7.44;100.00;63715.34;5071021;28;20212;-54
2024/01/04 02:40:28;;;;;;;6.37;4.17;;;;;;;7.42;100.00;63711.22;5071291;28;20219;-54
2024/01/04 02:42:54;;;;;;;4.87;3.13;;;;;;;7.39;100.00;63709.91;5071201;28;20293;-59
2024/01/04 02:45:19;;;;;;;4.87;3.40;;;;;;;7.46;100.00;63718.09;5053525;28;20272;-53
2024/01/04 02:47:45;;;;;;;5.77;3.20;;;;;;;7.48;100.00;63714.72;5053216;28;20303;-53
2024/01/04 02:50:11;;;;;;;6.03;3.03;;;;;;;7.33;100.00;63700.84;5071187;28;20264;-55
2024/01/04 02:52:37;;;;;;;6.73;3.87;;;;;;;7.36;100.00;63704.69;5070989;28;20216;-54
2024/01/04 02:55:03;;;;;;;4.10;2.83;;;;;;;7.39;100.00;63707.41;5053314;28;20199;-54
2024/01/04 02:57:29;;;;;;;5.17;2.77;;;;;;;7.25;100.00;63692.66;5071023;28;20669;-54
2024/01/04 02:59:54;;;;;;;5.17;3.53;;;;;;;7.34;100.00;63702.50;5070918;28;20193;-54
2024/01/04 03:02:20;;;;;;;4.40;2.77;;;;;;;7.31;100.00;63696.69;5071305;28;20273;-56
2024/01/04 03:04:45;;;;;;;6.97;3.23;;;;;;;7.35;100.00;63705.56;5070979;28;20206;-58
2024/01/04 03:07:12;;;;;;;7.17;3.20;;;;;;;7.37;100.00;63705.75;5071044;28;20250;-59
2024/01/04 03:09:37;;;;;;;6.10;3.43;;;;;;;7.25;100.00;63694.63;5071090;28;20181;-56
2024/01/04 03:12:03;;;;;;;7.70;3.67;;;;;;;7.15;100.00;63683.72;5071075;28;20724;-54
2024/01/04 03:14:29;;;;;;;5.20;3.80;;;;;;;7.23;100.00;63690.47;5070748;28;20651;-54
2024/01/04 03:16:54;;;;;;;8.13;3.50;;;;;;;7.23;100.00;63689.94;5070898;28;20221;-53
2024/01/04 03:19:20;;;;;;;5.13;3.43;;;;;;;7.04;100.00;63669.22;5070761;28;20208;-54
2024/01/04 03:21:46;;;;;;;6.77;3.70;;;;;;;6.96;100.00;63658.00;5071044;28;20221;-54
2024/01/04 03:24:11;;;;;;;5.27;3.93;;;;;;;6.90;100.00;63653.94;5052698;28;20647;-53
2024/01/04 03:26:37;;;;;;;9.10;4.17;;;;;;;7.02;100.00;63672.06;5070754;28;20200;-58
2024/01/04 03:29:03;;;;;;;7.87;4.47;;;;;;;7.00;100.00;63667.91;5070562;28;20192;-53
2024/01/04 03:31:29;;;;;;;7.57;3.67;;;;;;;7.09;100.00;63677.72;5070850;28;20635;-54
2024/01/04 03:33:54;;;;;;;6.97;4.07;;;;;;;6.95;100.00;63661.91;5070685;28;20682;-53
2024/01/04 03:36:20;;;;;;;9.73;3.90;;;;;;;6.92;100.00;63658.63;5070494;28;20266;-54
2024/01/04 03:38:45;;;;;;;9.07;4.40;;;;;;;6.71;100.00;63636.84;5052312;28;20674;-57
2024/01/04 03:41:11;;;;;;;9.23;4.00;;;;;;;6.36;100.00;63596.16;5070307;28;20185;-54
2024/01/04 03:43:37;;;;;;;8.20;4.07;;;;;;;6.56;100.00;63618.00;5070216;28;20215;-55
2024/01/04 03:46:06;;;;;;;7.07;4.03;;;;;;;6.68;100.00;63633.03;5073822;28;20188;-53
2024/01/04 03:48:32;;;;;;;8.07;4.47;;;;;;;6.59;100.00;63623.19;5073845;28;20200;-53
2024/01/04 03:50:57;;;;;;;13.00;4.63;;;;;;;6.52;100.00;63615.59;5073044;28;20220;-54
2024/01/04 03:53:23;;;;;;;8.13;3.70;;;;;;;6.69;100.00;63634.09;5073911;28;20228;-54
2024/01/04 03:55:49;;;;;;;8.83;3.60;;;;;;;6.68;100.00;63631.06;5073759;28;20292;-53
2024/01/04 03:58:14;;;;;;;6.20;3.90;;;;;;;6.85;100.00;63649.03;5055707;28;20216;-53
2024/01/04 04:00:40;;;;;;;9.77;3.90;;;;;;;6.81;100.00;63647.19;5073578;28;20197;-53
2024/01/04 04:03:05;;;;;;;10.97;4.60;;;;;;;6.89;100.00;63655.91;5073509;28;20208;-54
2024/01/04 04:05:31;;;;;;;11.53;4.40;;;;;;;6.93;100.00;63657.75;5073568;28;20197;-58
2024/01/04 04:07:56;;;;;;;6.93;4.23;;;;;;;6.81;100.00;63644.69;5073375;28;20224;-53
2024/01/04 04:10:22;;;;;;;8.57;4.03;;;;;;;6.72;100.00;63635.44;5073574;28;20565;-54
2024/01/04 04:12:48;;;;;;;7.70;3.50;;;;;;;6.66;100.00;63628.88;5073936;28;20244;-54
2024/01/04 04:15:14;;;;;;;6.63;3.97;;;;;;;6.67;100.00;63627.47;5073454;28;20181;-55
2024/01/04 04:17:39;;;;;;;6.10;3.57;;;;;;;6.69;100.00;63634.09;5073410;28;20219;-55
2024/01/04 04:20:06;;;;;;;6.13;3.20;;;;;;;6.83;100.00;63646.34;5055690;28;20195;-54
2024/01/04 04:22:31;;;;;;;8.97;3.97;;;;;;;6.76;100.00;63639.78;5073430;28;20236;-54
2024/01/04 04:24:57;;;;;;;7.27;4.27;;;;;;;6.73;100.00;63634.00;5073286;28;20224;-54
2024/01/04 04:27:22;;;;;;;10.30;3.33;;;;;;;6.78;100.00;63644.47;5073444;28;20217;-54
2024/01/04 04:29:55;;;;;;;6.00;3.40;;;;;;;6.76;100.00;63642.28;5073530;28;20318;-54
2024/01/04 04:32:20;;;;;;;6.17;3.73;;;;;;;6.75;100.00;63638.69;5073522;28;20225;-53
2024/01/04 04:34:46;;;;;;;5.93;2.90;;;;;;;6.69;100.00;63631.59;5073254;28;20192;-53
2024/01/04 04:37:13;;;;;;;8.13;3.73;;;;;;;6.70;100.00;63633.25;5072738;28;20694;-54
2024/01/04 04:39:39;;;;;;;3.43;2.40;;;;;;;6.73;100.00;63636.50;5055666;28;20254;-55
2024/01/04 04:42:05;;;;;;;7.30;2.97;;;;;;;6.77;100.00;63640.31;5073366;28;20262;-54
2024/01/04 04:44:31;;;;;;;4.40;2.53;;;;;;;6.64;100.00;63626.72;5073267;28;20211;-58
2024/01/04 04:46:57;;;;;;;5.40;3.07;;;;;;;6.46;100.00;63607.09;5073295;28;20220;-54
2024/01/04 04:49:22;;;;;;;4.27;2.80;;;;;;;6.27;100.00;63588.88;5073068;28;20211;-54
2024/01/04 04:51:51;;;;;;;5.60;2.53;;;;;;;6.54;100.00;63615.25;5073048;28;20266;-55
2024/01/04 04:54:16;;;;;;;5.20;2.83;;;;;;;6.26;100.00;63585.28;5073064;28;20254;-58
2024/01/04 04:56:42;;;;;;;5.87;2.60;;;;;;;6.51;100.00;63615.03;5054741;28;20217;-54
2024/01/04 04:59:08;;;;;;;3.77;2.27;;;;;;;6.40;100.00;63602.50;5072972;28;20303;-53
2024/01/04 05:01:34;;;;;;;4.17;2.73;;;;;;;6.47;100.00;63608.16;5072943;28;20324;-53
2024/01/04 05:03:59;;;;;;;4.47;2.50;;;;;;;6.57;100.00;63619.06;5072800;28;20247;-56
2024/01/04 05:06:25;;;;;;;6.17;2.93;;;;;;;6.34;100.00;63595.97;5072891;28;20193;-55
2024/01/04 05:08:50;;;;;;;5.10;2.20;;;;;;;6.54;100.00;63615.81;5072552;28;20205;-55
2024/01/04 05:11:16;;;;;;;4.20;1.90;;;;;;;6.60;100.00;63624.84;5072540;28;20196;-54
2024/01/04 05:13:41;;;;;;;5.40;2.43;;;;;;;6.43;100.00;63601.31;5072489;28;20197;-54
2024/01/04 05:16:07;;;;;;;3.00;2.20;;;;;;;6.64;100.00;63626.72;5072667;28;20262;-55
2024/01/04 05:18:32;;;;;;;3.40;2.60;;;;;;;6.35;100.00;63597.59;5072624;28;20213;-56
2024/01/04 05:20:58;;;;;;;4.73;3.20;;;;;;;6.72;100.00;63635.44;5072558;28;20675;-55
2024/01/04 05:23:24;;;;;;;4.77;2.43;;;;;;;6.89;100.00;63652.88;5072312;28;20216;-54
2024/01/04 05:25:50;;;;;;;4.83;2.60;;;;;;;6.74;100.00;63637.59;5072212;28;20663;-55
2024/01/04 05:28:15;;;;;;;5.97;2.90;;;;;;;7.45;100.00;63713.94;5072156;28;20262;-54
2024/01/04 05:30:41;;;;;;;4.43;3.37;;;;;;;10.52;100.00;64045.31;5072138;28;20188;-59
2024/01/04 05:33:07;;;;;;;5.70;3.80;;;;;;;11.42;100.00;64145.84;5072184;28;20231;-58
2024/01/04 05:35:32;;;;;;;5.23;3.10;;;;;;;9.99;100.00;63987.31;5072101;28;20187;-60
2024/01/04 05:37:58;;;;;;;5.43;3.03;;;;;;;8.58;100.00;63838.75;5071979;28;20354;-60
2024/01/04 05:40:23;;;;;;;6.10;2.80;;;;;;;7.48;100.00;63717.22;5072370;28;20226;-59
2024/01/04 05:42:49;;;;;;;3.87;2.67;;;;;;;7.61;100.00;63734.44;5054159;28;20720;-60
2024/01/04 05:45:14;;;;;;;4.07;2.57;;;;;;;7.27;100.00;63692.34;5054041;28;20181;-61
2024/01/04 05:47:40;;;;;;;5.13;3.23;;;;;;;6.90;100.00;63653.94;5071988;28;20299;-59
2024/01/04 05:50:06;;;;;;;4.20;2.10;;;;;;;6.77;100.00;63640.31;5072177;28;20181;-60
2024/01/04 05:52:32;;;;;;;3.47;2.33;;;;;;;6.89;100.00;63655.91;5071445;28;20208;-60
2024/01/04 05:54:57;;;;;;;3.73;2.70;;;;;;;6.77;100.00;63642.81;5072067;28;20177;-61
2024/01/04 05:57:29;;;;;;;5.20;2.80;;;;;;;6.77;100.00;63642.81;5071764;28;20691;-59
2024/01/04 05:59:54;;;;;;;4.87;3.10;;;;;;;6.77;100.00;63643.38;5070315;28;20659;-60
2024/01/04 06:02:20;;;;;;;5.67;3.20;;;;;;;7.23;100.00;63687.44;5071260;28;20223;-61
2024/01/04 06:04:46;;;;;;;8.50;3.00;;;;;;;7.11;100.00;63676.88;5053951;28;20254;-59
2024/01/04 06:07:12;;;;;;;7.00;3.47;;;;;;;6.86;100.00;63652.09;5070930;28;20632;-59
2024/01/04 06:09:38;;;;;;;5.77;3.87;;;;;;;7.08;100.00;63676.09;5071489;28;20192;-60
2024/01/04 06:12:04;;;;;;;6.27;3.13;;;;;;;6.97;100.00;63661.59;5071807;28;20278;-61
2024/01/04 06:14:30;;;;;;;5.77;3.37;;;;;;;6.57;100.00;63621.56;5053490;28;20196;-60
2024/01/04 06:16:58;;;;;;;8.83;5.10;;;;;;;6.48;100.00;63611.78;5071492;28;20220;-61
2024/01/04 06:19:24;;;;;;;6.63;3.90;;;;;;;6.62;100.00;63624.53;5071326;28;20220;-63
2024/01/04 06:21:50;;;;;;;7.03;3.97;;;;;;;6.75;100.00;63638.13;5053167;28;20246;-60
2024/01/04 06:24:15;;;;;;;7.47;4.40;;;;;;;6.32;100.00;63594.31;5071369;28;20215;-58
2024/01/04 06:26:41;;;;;;;6.03;3.43;;;;;;;6.61;100.00;63622.88;5071463;28;20200;-60
2024/01/04 06:29:06;;;;;;;5.63;3.67;;;;;;;6.88;100.00;63654.81;5071516;28;20580;-60
2024/01/04 06:31:32;;;;;;;5.73;3.57;;;;;;;6.78;100.00;63643.94;5071410;28;20547;-58
2024/01/04 06:33:58;;;;;;;6.30;3.93;;;;;;;6.59;100.00;63623.75;5071007;28;20219;-58
2024/01/04 06:36:23;;;;;;;13.07;6.03;;;;;;;6.63;100.00;63628.09;5071370;28;20346;-58
2024/01/04 06:38:50;;;;;;;8.23;4.13;;;;;;;6.88;100.00;63651.78;5069662;28;20673;-59
2024/01/04 06:41:19;;;;;;;5.43;3.50;;;;;;;7.04;100.00;63671.72;5071573;28;20264;-59
2024/01/04 06:43:44;;;;;;;10.67;4.67;;;;;;;6.88;100.00;63651.78;5071099;28;20213;-58
2024/01/04 06:46:10;;;;;;;7.13;4.63;;;;;;;7.21;100.00;63690.81;5071170;28;20205;-57
2024/01/04 06:48:35;;;;;;;7.63;3.60;;;;;;;7.38;100.00;63706.84;5070830;28;20208;-58
2024/01/04 06:51:01;;;;;;;3.33;2.77;;;;;;;7.49;100.00;63715.81;5071344;28;20197;-58
2024/01/04 06:53:27;;;;;;;7.50;3.97;;;;;;;7.67;100.00;63739.91;5071044;28;20220;-58
2024/01/04 06:55:52;;;;;;;4.53;3.17;;;;;;;7.64;100.00;63737.72;5070785;28;20213;-58
2024/01/04 06:58:18;;;;;;;4.77;3.00;;;;;;;7.59;100.00;63732.25;5070906;28;20250;-59
2024/01/04 07:00:43;;;;;;;5.63;3.87;;;;;;;7.62;100.00;63735.00;5070927;28;20286;-59
2024/01/04 07:03:09;;;;;;;9.40;4.43;;;;;;;7.79;100.00;63751.06;5070712;28;20216;-59
2024/01/04 07:05:35;;;;;;;9.17;4.80;;;;;;;7.74;100.00;63743.06;5052672;28;20184;-58
2024/01/04 07:08:00;;;;;;;15.13;8.50;;;;;;;7.64;100.00;63737.19;5070331;28;20537;-58
2024/01/04 07:10:26;;;;;;;11.57;6.93;;;;;;;7.60;100.00;63732.81;5070583;28;20662;-60
2024/01/04 07:12:51;;;;;;;10.47;5.97;;;;;;;7.76;100.00;63747.25;5070908;28;20296;-58
2024/01/04 07:15:17;;;;;;;13.57;7.30;;;;;;;7.91;100.00;63766.66;5070655;28;20195;-60
2024/01/04 07:17:42;;;;;;;10.83;6.27;;;;;;;8.14;100.00;63791.75;5070885;28;20208;-57
2024/01/04 07:20:09;;;;;;;11.03;6.27;;;;;;;8.29;100.00;63805.66;5070609;28;20612;-57
2024/01/04 07:22:35;;;;;;;12.33;8.77;;;;;;;8.52;100.00;63832.75;5070658;28;20236;-57
2024/01/04 07:25:01;;;;;;;9.40;6.30;;;;;;;8.27;100.00;63802.91;5052745;28;20181;-59
2024/01/04 07:27:27;;;;;;;13.10;7.30;;;;;;;8.08;100.00;63782.69;5070435;28;20346;-58
2024/01/04 07:29:54;;;;;;;10.87;6.57;;;;;;;8.33;100.00;63809.47;5070629;28;20187;-57
2024/01/04 07:32:20;;;;;;;10.00;6.27;;;;;;;8.29;100.00;63802.59;5070798;28;20213;-59
2024/01/04 07:34:48;;;;;;;7.93;4.83;;;;;;;8.53;100.00;63831.31;5070426;28;20195;-58
2024/01/04 07:37:14;;;;;;;11.27;6.30;;;;;;;8.58;100.00;63836.78;5069975;28;20223;-59
2024/01/04 07:39:43;;;;;;;12.80;5.07;;;;;;;8.35;100.00;63814.72;5070206;28;20189;-59
2024/01/04 07:42:09;;;;;;;8.00;4.50;;;;;;;8.56;100.00;63834.06;5070071;28;20208;-61
2024/01/04 07:44:35;;;;;;;13.30;7.00;;;;;;;8.57;100.00;63835.69;5070307;28;20236;-59
2024/01/04 07:47:01;;;;;;;9.17;4.40;;;;;;;8.49;100.00;63826.94;5052394;28;20212;-58
2024/01/04 07:49:26;;;;;;;6.33;4.53;;;;;;;8.75;100.00;63857.31;5070268;28;20280;-58
2024/01/04 07:51:54;;;;;;;11.50;4.33;;;;;;;8.87;100.00;63867.91;5070123;28;20212;-57
2024/01/04 07:54:20;;;;;;;9.17;4.43;;;;;;;8.86;100.00;63869.34;5070337;28;20243;-60
2024/01/04 07:56:46;;;;;;;8.17;4.33;;;;;;;9.11;100.00;63891.63;5070014;28;20702;-58
2024/01/04 07:59:13;;;;;;;15.97;5.93;;;;;;;9.09;100.00;63894.47;5070290;28;20187;-57
2024/01/04 08:01:38;;;;;;;7.97;5.43;;;;;;;8.82;100.00;63863.00;5070510;28;20185;-59
2024/01/04 08:04:05;;;;;;;6.30;4.37;;;;;;;9.12;100.00;63897.75;5070043;28;20185;-57
2024/01/04 08:06:31;;;;;;;9.57;4.40;;;;;;;9.30;100.00;63912.41;5070160;28;20193;-59
2024/01/04 08:08:57;;;;;;;9.17;4.37;;;;;;;9.22;100.00;63906.72;5070189;28;20207;-58
2024/01/04 08:11:23;;;;;;;6.80;4.23;;;;;;;9.09;100.00;63890.00;5069881;28;20537;-57
2024/01/04 08:13:52;;;;;;;10.67;5.17;;;;;;;9.48;100.00;63932.06;5069909;28;20216;-57
2024/01/04 08:16:19;;;;;;;11.47;4.97;;;;;;;9.61;100.00;63945.75;5069692;28;20738;-57
2024/01/04 08:18:44;;;;;;;12.07;5.63;;;;;;;9.56;100.00;63940.28;5069793;28;20209;-57
2024/01/04 08:21:10;;;;;;;19.40;5.90;;;;;;;9.70;100.00;63958.09;5070073;28;20193;-58
2024/01/04 08:23:40;;;;;;;12.50;6.10;;;;;;;9.72;100.00;63960.84;5069885;28;20295;-58
2024/01/04 08:26:07;;;;;;;10.70;4.83;;;;;;;9.82;100.00;63971.22;5069946;28;20318;-58
2024/01/04 08:28:32;;;;;;;13.87;4.00;;;;;;;9.94;100.00;63982.38;5051850;28;20225;-59
2024/01/04 08:30:59;;;;;;;8.27;4.87;;;;;;;10.04;100.00;63998.34;5053954;28;20196;-59
2024/01/04 08:33:25;;;;;;;11.73;5.73;;;;;;;9.68;100.00;63953.38;5055251;28;20270;-58
2024/01/04 08:35:50;;;;;;;14.13;6.10;;;;;;;9.85;100.00;63977.56;5073082;28;20196;-60
2024/01/04 08:38:16;;;;;;;13.17;6.00;;;;;;;10.12;100.00;64001.53;5073015;28;20732;-57
2024/01/04 08:40:42;;;;;;;13.03;7.30;;;;;;;9.84;100.00;63976.47;5073043;28;20185;-58
2024/01/04 08:43:07;;;;;;;16.73;7.00;;;;;;;9.92;100.00;63980.19;5072976;28;20262;-58
2024/01/04 08:45:33;;;;;;;11.33;6.63;;;;;;;10.18;100.00;64010.63;5055027;28;20284;-57
2024/01/04 08:47:59;;;;;;;14.53;7.93;;;;;;;10.54;100.00;64049.47;5073184;28;20288;-58
2024/01/04 08:50:24;;;;;;;19.03;9.93;;;;;;;10.86;100.00;64087.59;5072969;28;20592;-57
2024/01/04 08:52:51;;;;;;;16.63;9.40;;;;;;;11.03;100.00;64100.59;5073054;28;20590;-57
2024/01/04 08:55:19;;;;;;;24.43;13.37;;;;;;;11.36;100.00;64136.75;5054891;28;20191;-58
2024/01/04 08:57:44;;;;;;;28.50;14.23;;;;;;;11.46;100.00;64150.22;5072677;28;20225;-58
2024/01/04 09:00:11;;;;;;;23.30;12.83;;;;;;;11.38;100.00;64138.38;5072846;28;20626;-56
2024/01/04 09:02:37;;;;;;;18.10;11.60;;;;;;;10.66;100.00;64062.63;5073005;28;20698;-59
2024/01/04 09:05:02;;;;;;;19.77;11.17;;;;;;;11.19;100.00;64117.56;5072532;28;20228;-57
2024/01/04 09:07:28;;;;;;;20.97;10.80;;;;;;;10.79;100.00;64076.84;5072938;28;20209;-57
2024/01/04 09:09:53;;;;;;;27.20;12.70;;;;;;;10.44;100.00;64036.00;5072700;28;20680;-58
2024/01/04 09:12:19;;;;;;;22.03;11.73;;;;;;;10.69;100.00;64063.38;5072795;28;20258;-56
2024/01/04 09:14:46;;;;;;;20.53;10.60;;;;;;;10.92;100.00;64091.06;5072531;28;20189;-58
2024/01/04 09:17:11;;;;;;;17.33;9.93;;;;;;;10.77;100.00;64074.66;5072497;28;20252;-57
2024/01/04 09:19:39;;;;;;;20.17;9.27;;;;;;;11.05;100.00;64102.78;5072538;28;20196;-57
2024/01/04 09:22:05;;;;;;;12.63;8.03;;;;;;;11.33;100.00;64135.97;5072519;28;20227;-59
2024/01/04 09:24:32;;;;;;;8.17;5.77;;;;;;;11.62;97.73;64167.75;5072689;28;20185;-57
2024/01/04 09:26:58;;;;;;;11.60;6.17;;;;;;;11.94;96.17;64199.75;5072539;28;20666;-56
2024/01/04 09:29:24;;;;;;;15.77;6.10;;;;;;;12.07;95.92;64216.00;5054222;28;20208;-58
2024/01/04 09:31:49;;;;;;;11.70;6.60;;;;;;;12.25;89.95;64233.19;5072742;28;20213;-57
2024/01/04 09:34:15;;;;;;;18.90;8.20;;;;;;;11.52;95.41;64156.25;5072470;28;20268;-56
2024/01/04 09:36:41;;;;;;;15.60;7.60;;;;;;;11.11;95.41;64108.81;5053874;28;20286;-56
2024/01/04 09:39:14;;;;;;;15.73;7.43;;;;;;;11.15;95.52;64113.72;5072061;28;20222;-56
2024/01/04 09:41:44;;;;;;;13.83;7.03;;;;;;;11.96;90.10;64201.94;5071093;28;20201;-56
2024/01/04 09:44:11;;;;;;;13.37;7.33;;;;;;;12.31;90.60;64239.78;5072194;28;20242;-58
2024/01/04 09:46:38;;;;;;;9.03;5.40;;;;;;;12.87;89.77;64300.63;5072079;28;20693;-57
2024/01/04 09:49:05;;;;;;;13.93;5.43;;;;;;;13.11;89.14;64327.00;5072068;28;20239;-57
2024/01/04 09:51:34;;;;;;;7.33;4.93;;;;;;;13.47;86.05;64369.56;5053238;28;20197;-56
2024/01/04 09:54:04;;;;;;;11.13;4.57;;;;;;;13.84;77.73;64409.66;5070507;28;20223;-56
2024/01/04 09:56:32;;;;;;;12.50;4.77;;;;;;;13.76;81.88;64397.78;5053020;28;20248;-56
2024/01/04 09:58:58;;;;;;;9.17;4.50;;;;;;;13.48;78.36;64370.13;5071828;28;20258;-57
2024/01/04 10:01:25;;;;;;;8.97;4.20;;;;;;;13.29;76.97;64346.75;5052288;28;20197;-57
2024/01/04 10:03:53;;;;;;;7.27;3.77;;;;;;;14.10;76.00;64435.13;5071731;28;20239;-57
2024/01/04 10:06:34;;;;;;;5.30;3.28;;;;;;;14.61;76.94;64491.19;5071001;28;20203;-57
2024/01/04 10:09:31;;;;;;;7.63;3.33;;;;;;;14.69;72.88;64501.97;5053726;28;20181;-56
2024/01/04 10:11:57;;;;;;;7.18;3.00;;;;;;;14.40;73.20;64470.66;5037474;28;20282;-57
2024/01/04 10:14:29;;;;;;;6.60;3.55;;;;;;;15.31;71.68;64567.03;5071758;28;20212;-54
2024/01/04 10:16:59;;;;;;;6.22;3.72;;;;;;;15.64;70.47;64603.34;5071749;28;20740;-58
2024/01/04 10:19:32;;;;;;;6.03;3.55;;;;;;;15.59;64.69;64600.41;5071254;28;20215;-56
2024/01/04 10:22:06;;;;;;;9.30;3.33;;;;;;;15.41;68.19;64578.56;5053243;28;20311;-56
2024/01/04 10:24:37;;;;;;;5.93;3.20;;;;;;;15.42;66.17;64582.25;5071520;28;20671;-55
2024/01/04 10:27:05;;;;;;;4.07;3.05;;;;;;;14.79;68.87;64516.03;5078788;22;20247;-57
2024/01/04 10:29:35;;;;;;;7.35;3.55;;;;;;;15.21;69.05;64553.50;5053354;28;20259;-57
2024/01/04 10:32:10;;;;;;;8.25;3.38;;;;;;;15.49;67.36;64589.41;5071714;28;20215;-55
2024/01/04 10:34:37;;;;;;;8.75;4.03;;;;;;;15.63;67.91;64602.81;5071318;28;20244;-56
2024/01/04 10:37:22;;;;;;;9.05;3.25;;;;;;;15.72;67.83;64612.16;5071078;28;20223;-56
2024/01/04 10:39:58;;;;;;;5.45;2.92;;;;;;;15.39;65.63;64575.84;5071329;28;20219;-59
2024/01/04 10:42:24;;;;;;;6.22;3.15;;;;;;;16.33;66.62;64683.81;5071330;28;20235;-55
2024/01/04 10:44:53;;;;;;;5.68;2.97;;;;;;;16.79;63.79;64735.03;5071175;28;20185;-54
2024/01/04 10:47:18;;;;;;;6.40;3.03;;;;;;;16.97;61.80;64748.69;5071255;28;20251;-56
2024/01/04 10:49:47;;;;;;;6.70;3.58;;;;;;;16.54;98.55;64704.41;5070985;28;20697;-55
2024/01/04 10:52:19;;;;;;;5.57;3.40;;;;;;;18.05;87.65;64870.25;5070934;28;20807;-54
2024/01/04 10:54:45;;;;;;;5.18;3.22;;;;;;;18.93;73.81;64963.69;5070677;28;20744;-55
2024/01/04 10:57:12;;;;;;;6.30;4.05;;;;;;;18.34;64.93;64899.69;5070842;28;20216;-54
2024/01/04 10:59:39;;;;;;;11.35;4.22;;;;;;;17.85;60.46;64848.22;5070940;28;20265;-56
2024/01/04 11:02:09;;;;;;;5.53;3.30;;;;;;;17.47;61.86;64806.84;5052912;28;20208;-55
2024/01/04 11:04:36;;;;;;;6.80;3.85;;;;;;;16.53;64.46;64703.88;5071062;28;20181;-55
2024/01/04 11:07:03;;;;;;;7.10;3.10;;;;;;;16.71;63.60;64718.59;5070556;28;20217;-56
2024/01/04 11:09:30;;;;;;;4.47;3.13;;;;;;;17.31;63.53;64786.13;5052864;28;20243;-55
2024/01/04 11:11:58;;;;;;;9.10;2.95;;;;;;;17.53;60.95;64810.41;5070228;28;20278;-56
2024/01/04 11:14:25;;;;;;;5.07;2.42;;;;;;;17.90;60.04;64851.16;5070741;28;20185;-55
2024/01/04 11:17:18;;;;;;;6.18;2.85;;;;;;;18.56;57.35;64923.44;5070780;28;20769;-55
2024/01/04 11:20:08;;;;;;;6.95;3.00;;;;;;;17.93;56.60;64854.47;5069333;28;20492;-54
2024/01/04 11:22:33;;;;;;;8.27;3.28;;;;;;;18.23;58.00;64885.00;5070405;28;20295;-55
2024/01/04 11:25:21;;;;;;;6.85;2.78;;;;;;;18.75;56.24;64943.81;5070623;28;20560;-56
2024/01/04 11:27:47;;;;;;;9.07;3.38;;;;;;;18.78;55.08;64947.69;5070486;28;20227;-55
2024/01/04 11:30:14;;;;;;;7.20;3.55;;;;;;;18.98;54.60;64969.22;5070660;28;20670;-56